Argyle's Hourly Summary for Sunday, July 8, 2018
Hour Temp
(f)
RH
(%)
Solar Rad.
(MJ/m2)
Rainfall
(in)
Wind
(mph)
7/8/2018 12:00 AM 84 57 0 0 3.3
7/8/2018 1:00 AM 83 59 0 0 2.49
7/8/2018 2:00 AM 82 63 0 0 2.25
7/8/2018 3:00 AM 81 64 0 0 0.99
7/8/2018 4:00 AM 79 68 0 0 1.1
7/8/2018 5:00 AM 78 72 0 0 0.7
7/8/2018 6:00 AM 75 78 0 0 0
7/8/2018 7:00 AM 74 81 0.03 0 0.29
7/8/2018 8:00 AM 78 77 0.34 0 2.06
7/8/2018 9:00 AM 81 64 1.12 0 3.86
7/8/2018 10:00 AM 84 54 1.59 0 4.68
7/8/2018 11:00 AM 86 50 2.46 0 4.45
7/8/2018 12:00 PM 89 45 2.47 0 4.77
7/8/2018 1:00 PM 90 42 2.63 0 6.01
7/8/2018 2:00 PM 91 40 2.91 0 5.8
7/8/2018 3:00 PM 92 38 2.49 0 6.45
7/8/2018 4:00 PM 94 34 2.51 0 6.7
7/8/2018 5:00 PM 95 31 2.44 0 7.09
7/8/2018 6:00 PM 94 34 1.4 0 7
7/8/2018 7:00 PM 94 34 1.13 0 6.98
7/8/2018 8:00 PM 90 42 0.3 0 5.96
7/8/2018 9:00 PM 87 49 0.03 0 4.3
7/8/2018 10:00 PM 85 54 0 0 3.96
7/8/2018 11:00 PM 83 58 0 0 4.86
Data Summary 85 53 23.85 0.00 4.00